DAL2484 KATL-KBHM
Flight info
| Callsign | DAL2484 |
|---|---|
| Flight time | 0h 28m |
| Altitude | 16000 |
| Route | NASSA2 NASSA KIOSK |
| Aircraft | MD88/M-SDFGIRWY/S |
Departure
| Time | 2026-05-03 21:14 |
|---|---|
| Airport | Hartsfield Jackson Atlanta International Airport (KATL) |
Arrival
| Time | 2026-05-03 21:42 |
|---|---|
| Airport | Birmingham-Shuttlesworth International Airport (KBHM) |
| Time | Latitude | Longitude | Altitude | Speed | Heading |
|---|---|---|---|---|---|
| 2026-05-03 20:48 | 33.63835 | -84.43648 | 1036 ft | 0 kts | 89° |
| 2026-05-03 21:02 | 33.63835 | -84.43665 | 1064 ft | 4 kts | 94° |
| 2026-05-03 21:02 | 33.63836 | -84.43693 | 1036 ft | 4 kts | 84° |
| 2026-05-03 21:02 | 33.63828 | -84.43715 | 1036 ft | 4 kts | 32° |
| 2026-05-03 21:02 | 33.63805 | -84.43723 | 1036 ft | 4 kts | 2° |
| 2026-05-03 21:03 | 33.63795 | -84.43723 | 1036 ft | 1 kts | 0° |
| 2026-05-03 21:05 | 33.63825 | -84.43723 | 1036 ft | 12 kts | 0° |
| 2026-05-03 21:05 | 33.63924 | -84.43723 | 1036 ft | 14 kts | 360° |
| 2026-05-03 21:06 | 33.64025 | -84.43722 | 1036 ft | 15 kts | 0° |
| 2026-05-03 21:06 | 33.64126 | -84.43722 | 1036 ft | 15 kts | 360° |
| 2026-05-03 21:06 | 33.64229 | -84.43722 | 1036 ft | 15 kts | 360° |
| 2026-05-03 21:06 | 33.64332 | -84.43723 | 1036 ft | 15 kts | 360° |
| 2026-05-03 21:07 | 33.64382 | -84.43723 | 1036 ft | 0 kts | 360° |
| 2026-05-03 21:09 | 33.64422 | -84.43714 | 1036 ft | 13 kts | 30° |
| 2026-05-03 21:09 | 33.64460 | -84.43622 | 1036 ft | 12 kts | 86° |
| 2026-05-03 21:09 | 33.64460 | -84.43478 | 1036 ft | 25 kts | 90° |
| 2026-05-03 21:09 | 33.64460 | -84.43224 | 1036 ft | 34 kts | 90° |
| 2026-05-03 21:10 | 33.64459 | -84.42941 | 1036 ft | 34 kts | 90° |
| 2026-05-03 21:10 | 33.64469 | -84.42664 | 1036 ft | 33 kts | 88° |
| 2026-05-03 21:10 | 33.64469 | -84.42372 | 1036 ft | 35 kts | 90° |
| 2026-05-03 21:10 | 33.64538 | -84.42106 | 1036 ft | 30 kts | 76° |
| 2026-05-03 21:11 | 33.64544 | -84.41856 | 1036 ft | 30 kts | 90° |
| 2026-05-03 21:11 | 33.64543 | -84.41613 | 1037 ft | 29 kts | 90° |
| 2026-05-03 21:11 | 33.64544 | -84.41372 | 1037 ft | 29 kts | 90° |
| 2026-05-03 21:11 | 33.64543 | -84.41130 | 1036 ft | 29 kts | 90° |
| 2026-05-03 21:12 | 33.64543 | -84.40889 | 1036 ft | 29 kts | 87° |
| 2026-05-03 21:12 | 33.64571 | -84.40673 | 1035 ft | 23 kts | 89° |
| 2026-05-03 21:12 | 33.64633 | -84.40572 | 1034 ft | 9 kts | 8° |
| 2026-05-03 21:12 | 33.64670 | -84.40588 | 1033 ft | 4 kts | 308° |
| 2026-05-03 21:13 | 33.64679 | -84.40637 | 1033 ft | 17 kts | 271° |
| 2026-05-03 21:13 | 33.64679 | -84.40997 | 1036 ft | 72 kts | 270° |
| 2026-05-03 21:13 | 33.64678 | -84.41853 | 1037 ft | 131 kts | 270° |
| 2026-05-03 21:13 | 33.64666 | -84.43121 | 1097 ft | 172 kts | 269° |
| 2026-05-03 21:14 | 33.64634 | -84.44578 | 1910 ft | 169 kts | 269° |
| 2026-05-03 21:14 | 33.64669 | -84.46015 | 2726 ft | 181 kts | 279° |
| 2026-05-03 21:14 | 33.64970 | -84.47555 | 3338 ft | 198 kts | 283° |
| 2026-05-03 21:14 | 33.65278 | -84.49231 | 4019 ft | 214 kts | 283° |
| 2026-05-03 21:15 | 33.65605 | -84.51094 | 4481 ft | 241 kts | 282° |
| 2026-05-03 21:15 | 33.66008 | -84.53094 | 5245 ft | 249 kts | 285° |
| 2026-05-03 21:15 | 33.66428 | -84.55103 | 6258 ft | 242 kts | 284° |
| 2026-05-03 21:15 | 33.66801 | -84.57048 | 7149 ft | 244 kts | 283° |
| 2026-05-03 21:16 | 33.67193 | -84.59137 | 7485 ft | 268 kts | 283° |
| 2026-05-03 21:16 | 33.67579 | -84.61347 | 8196 ft | 270 kts | 282° |
| 2026-05-03 21:16 | 33.67945 | -84.63586 | 8995 ft | 273 kts | 282° |
| 2026-05-03 21:16 | 33.68306 | -84.65835 | 9780 ft | 276 kts | 282° |
| 2026-05-03 21:17 | 33.68679 | -84.68125 | 10331 ft | 287 kts | 282° |
| 2026-05-03 21:17 | 33.68944 | -84.69728 | 10430 ft | 303 kts | 282° |
| 2026-05-03 21:17 | 33.69517 | -84.73181 | 10684 ft | 332 kts | 282° |
| 2026-05-03 21:17 | 33.69967 | -84.76006 | 10862 ft | 354 kts | 278° |
| 2026-05-03 21:18 | 33.70124 | -84.79059 | 11183 ft | 371 kts | 271° |
| 2026-05-03 21:18 | 33.70099 | -84.82142 | 11921 ft | 374 kts | 270° |
| 2026-05-03 21:18 | 33.70041 | -84.85270 | 12774 ft | 376 kts | 269° |
| 2026-05-03 21:18 | 33.69978 | -84.88413 | 13545 ft | 379 kts | 270° |
| 2026-05-03 21:19 | 33.69935 | -84.91615 | 14301 ft | 383 kts | 270° |
| 2026-05-03 21:19 | 33.69905 | -84.94801 | 15046 ft | 385 kts | 270° |
| 2026-05-03 21:19 | 33.69884 | -84.98047 | 15580 ft | 394 kts | 270° |
| 2026-05-03 21:19 | 33.69871 | -85.01396 | 15822 ft | 403 kts | 270° |
| 2026-05-03 21:20 | 33.69864 | -85.04756 | 15937 ft | 406 kts | 270° |
| 2026-05-03 21:20 | 33.69857 | -85.08151 | 15974 ft | 401 kts | 270° |
| 2026-05-03 21:20 | 33.69855 | -85.11499 | 16010 ft | 400 kts | 270° |
| 2026-05-03 21:20 | 33.69854 | -85.14844 | 16024 ft | 399 kts | 270° |
| 2026-05-03 21:21 | 33.69853 | -85.18140 | 16014 ft | 398 kts | 270° |
| 2026-05-03 21:21 | 33.69846 | -85.21486 | 16018 ft | 399 kts | 270° |
| 2026-05-03 21:21 | 33.69680 | -85.24810 | 16022 ft | 398 kts | 264° |
| 2026-05-03 21:21 | 33.69301 | -85.28068 | 16018 ft | 400 kts | 262° |
| 2026-05-03 21:22 | 33.68850 | -85.31389 | 16018 ft | 400 kts | 261° |
| 2026-05-03 21:22 | 33.68390 | -85.34683 | 16017 ft | 399 kts | 262° |
| 2026-05-03 21:22 | 33.67938 | -85.37977 | 16019 ft | 400 kts | 262° |
| 2026-05-03 21:22 | 33.67502 | -85.41289 | 16014 ft | 400 kts | 262° |
| 2026-05-03 21:23 | 33.67081 | -85.44587 | 16017 ft | 400 kts | 262° |
| 2026-05-03 21:23 | 33.66671 | -85.47883 | 16016 ft | 399 kts | 262° |
| 2026-05-03 21:23 | 33.66270 | -85.51144 | 15807 ft | 399 kts | 262° |
| 2026-05-03 21:23 | 33.65874 | -85.54370 | 15549 ft | 383 kts | 262° |
| 2026-05-03 21:24 | 33.65490 | -85.57498 | 15297 ft | 374 kts | 262° |
| 2026-05-03 21:24 | 33.65111 | -85.60573 | 15056 ft | 370 kts | 262° |
| 2026-05-03 21:24 | 33.64736 | -85.63624 | 14813 ft | 368 kts | 263° |
| 2026-05-03 21:24 | 33.64365 | -85.66663 | 14575 ft | 367 kts | 263° |
| 2026-05-03 21:25 | 33.63990 | -85.69699 | 14358 ft | 367 kts | 262° |
| 2026-05-03 21:25 | 33.63617 | -85.72693 | 14129 ft | 366 kts | 262° |
| 2026-05-03 21:25 | 33.63226 | -85.75721 | 13883 ft | 364 kts | 262° |
| 2026-05-03 21:25 | 33.62825 | -85.78685 | 13629 ft | 354 kts | 262° |
| 2026-05-03 21:26 | 33.62438 | -85.81555 | 13357 ft | 344 kts | 262° |
| 2026-05-03 21:26 | 33.62068 | -85.84361 | 13093 ft | 338 kts | 262° |
| 2026-05-03 21:26 | 33.61711 | -85.87142 | 12822 ft | 335 kts | 262° |
| 2026-05-03 21:26 | 33.61358 | -85.89908 | 12558 ft | 333 kts | 262° |
| 2026-05-03 21:27 | 33.61011 | -85.92626 | 12317 ft | 333 kts | 263° |
| 2026-05-03 21:27 | 33.60663 | -85.95378 | 12070 ft | 333 kts | 263° |
| 2026-05-03 21:27 | 33.60317 | -85.98128 | 11831 ft | 332 kts | 263° |
| 2026-05-03 21:27 | 33.59975 | -86.00871 | 11600 ft | 333 kts | 263° |
| 2026-05-03 21:28 | 33.59637 | -86.03603 | 11362 ft | 325 kts | 263° |
| 2026-05-03 21:28 | 33.59309 | -86.06255 | 11123 ft | 316 kts | 263° |
| 2026-05-03 21:28 | 33.58981 | -86.08805 | 10872 ft | 308 kts | 263° |
| 2026-05-03 21:28 | 33.58657 | -86.11318 | 10620 ft | 301 kts | 263° |
| 2026-05-03 21:29 | 33.58346 | -86.13782 | 10377 ft | 295 kts | 263° |
| 2026-05-03 21:29 | 33.58039 | -86.16195 | 10139 ft | 289 kts | 262° |
| 2026-05-03 21:29 | 33.57707 | -86.18526 | 9887 ft | 285 kts | 262° |
| 2026-05-03 21:29 | 33.57368 | -86.20855 | 9606 ft | 282 kts | 262° |
| 2026-05-03 21:30 | 33.57029 | -86.23167 | 9312 ft | 280 kts | 262° |
| 2026-05-03 21:30 | 33.56690 | -86.25472 | 9041 ft | 278 kts | 262° |
| 2026-05-03 21:30 | 33.56356 | -86.27728 | 8772 ft | 277 kts | 262° |
| 2026-05-03 21:30 | 33.56013 | -86.29998 | 8494 ft | 277 kts | 262° |
| 2026-05-03 21:31 | 33.55666 | -86.32269 | 8229 ft | 276 kts | 261° |
| 2026-05-03 21:31 | 33.55264 | -86.34514 | 7949 ft | 276 kts | 259° |
| 2026-05-03 21:31 | 33.54803 | -86.36750 | 7680 ft | 275 kts | 258° |
| 2026-05-03 21:31 | 33.54333 | -86.38951 | 7411 ft | 275 kts | 258° |
| 2026-05-03 21:32 | 33.54007 | -86.40452 | 7227 ft | 275 kts | 258° |
| 2026-05-03 21:32 | 33.53948 | -86.40720 | 7197 ft | 274 kts | 257° |
| 2026-05-03 21:32 | 33.53466 | -86.42912 | 6945 ft | 274 kts | 258° |
| 2026-05-03 21:32 | 33.52978 | -86.45128 | 6669 ft | 273 kts | 257° |
| 2026-05-03 21:33 | 33.52498 | -86.47312 | 6412 ft | 273 kts | 258° |
| 2026-05-03 21:33 | 33.52020 | -86.49495 | 6120 ft | 270 kts | 258° |
| 2026-05-03 21:33 | 33.51543 | -86.51690 | 5825 ft | 268 kts | 257° |
| 2026-05-03 21:33 | 33.51081 | -86.53833 | 5554 ft | 267 kts | 257° |
| 2026-05-03 21:34 | 33.50621 | -86.55990 | 5273 ft | 264 kts | 258° |
| 2026-05-03 21:34 | 33.50181 | -86.58097 | 5126 ft | 260 kts | 258° |
| 2026-05-03 21:34 | 33.49740 | -86.60190 | 5083 ft | 256 kts | 258° |
| 2026-05-03 21:34 | 33.49302 | -86.62248 | 5058 ft | 255 kts | 258° |
| 2026-05-03 21:35 | 33.48881 | -86.64297 | 5037 ft | 257 kts | 257° |
| 2026-05-03 21:35 | 33.48452 | -86.66390 | 5040 ft | 259 kts | 258° |
| 2026-05-03 21:35 | 33.48023 | -86.68497 | 5038 ft | 262 kts | 258° |
| 2026-05-03 21:35 | 33.47606 | -86.70613 | 5029 ft | 261 kts | 257° |
| 2026-05-03 21:36 | 33.47176 | -86.72735 | 5019 ft | 263 kts | 258° |
| 2026-05-03 21:36 | 33.46740 | -86.74865 | 5014 ft | 263 kts | 258° |
| 2026-05-03 21:36 | 33.46454 | -86.76273 | 5025 ft | 261 kts | 256° |
| 2026-05-03 21:36 | 33.45232 | -86.78805 | 4786 ft | 272 kts | 228° |
| 2026-05-03 21:37 | 33.44336 | -86.79883 | 4646 ft | 271 kts | 227° |
| 2026-05-03 21:37 | 33.43001 | -86.81441 | 4305 ft | 271 kts | 226° |
| 2026-05-03 21:37 | 33.41644 | -86.83016 | 3978 ft | 271 kts | 227° |
| 2026-05-03 21:37 | 33.40291 | -86.84578 | 3684 ft | 270 kts | 226° |
| 2026-05-03 21:38 | 33.39066 | -86.86259 | 3341 ft | 266 kts | 246° |
| 2026-05-03 21:38 | 33.38757 | -86.88349 | 3188 ft | 253 kts | 283° |
| 2026-05-03 21:38 | 33.39588 | -86.90098 | 3113 ft | 246 kts | 322° |
| 2026-05-03 21:38 | 33.41167 | -86.90792 | 3090 ft | 248 kts | 360° |
| 2026-05-03 21:39 | 33.42840 | -86.90253 | 3096 ft | 254 kts | 22° |
| 2026-05-03 21:39 | 33.44439 | -86.89335 | 3135 ft | 254 kts | 24° |
| 2026-05-03 21:39 | 33.46005 | -86.88375 | 3065 ft | 251 kts | 24° |
| 2026-05-03 21:39 | 33.47553 | -86.87413 | 2784 ft | 255 kts | 26° |
| 2026-05-03 21:40 | 33.49099 | -86.86291 | 2372 ft | 261 kts | 31° |
| 2026-05-03 21:40 | 33.50543 | -86.85020 | 1911 ft | 249 kts | 38° |
| 2026-05-03 21:40 | 33.51643 | -86.83562 | 1611 ft | 223 kts | 53° |
| 2026-05-03 21:40 | 33.52506 | -86.82097 | 1518 ft | 207 kts | 51° |
| 2026-05-03 21:41 | 33.53307 | -86.80793 | 1410 ft | 182 kts | 50° |
| 2026-05-03 21:41 | 33.54024 | -86.79624 | 1288 ft | 161 kts | 50° |
| 2026-05-03 21:41 | 33.54652 | -86.78565 | 1056 ft | 153 kts | 51° |
| 2026-05-03 21:41 | 33.55256 | -86.77534 | 764 ft | 153 kts | 52° |
| 2026-05-03 21:42 | 33.55844 | -86.76511 | 612 ft | 140 kts | 50° |
| 2026-05-03 21:42 | 33.56300 | -86.75739 | 613 ft | 85 kts | 55° |
| 2026-05-03 21:42 | 33.56562 | -86.75283 | 617 ft | 50 kts | 55° |
| 2026-05-03 21:42 | 33.56657 | -86.75073 | 608 ft | 17 kts | 100° |
| 2026-05-03 21:43 | 33.56628 | -86.75018 | 619 ft | 3 kts | 155° |
| 2026-05-03 21:43 | 33.56581 | -86.75028 | 614 ft | 13 kts | 210° |
| 2026-05-03 21:43 | 33.56536 | -86.75112 | 616 ft | 12 kts | 240° |
| 2026-05-03 21:43 | 33.56485 | -86.75145 | 617 ft | 8 kts | 179° |
| 2026-05-03 21:44 | 33.56434 | -86.75143 | 616 ft | 8 kts | 182° |
| 2026-05-03 21:44 | 33.56392 | -86.75132 | 616 ft | 5 kts | 154° |
| 2026-05-03 21:44 | 33.56370 | -86.75114 | 615 ft | 2 kts | 147° |
| 2026-05-03 21:44 | 33.56368 | -86.75113 | 614 ft | 0 kts | 147° |